createdAt,value
2018-06-09T00:01:55.775Z,19.27
2018-06-09T00:04:08.198Z,19.27
2018-06-09T00:06:20.614Z,19.33
2018-06-09T00:08:33.120Z,19.33
2018-06-09T00:10:45.504Z,19.30
2018-06-09T00:12:58.006Z,19.25
2018-06-09T00:15:10.359Z,19.22
2018-06-09T00:17:22.810Z,19.26
2018-06-09T00:19:35.398Z,19.24
2018-06-09T00:21:47.709Z,19.20
2018-06-09T00:24:00.190Z,19.17
2018-06-09T00:26:12.656Z,19.16
2018-06-09T00:28:25.006Z,19.18
2018-06-09T00:30:37.378Z,19.17
2018-06-09T00:32:49.888Z,19.15
2018-06-09T00:35:02.211Z,19.06
2018-06-09T00:37:14.666Z,19.05
2018-06-09T00:39:27.180Z,19.02
2018-06-09T00:41:39.525Z,18.92
2018-06-09T00:43:51.949Z,18.94
2018-06-09T00:46:04.274Z,18.96
2018-06-09T00:48:16.778Z,18.86
2018-06-09T00:50:29.095Z,18.83
2018-06-09T00:52:41.417Z,18.86
2018-06-09T00:54:53.789Z,18.87
2018-06-09T00:57:06.121Z,18.89
2018-06-09T00:59:18.506Z,18.90
2018-06-09T01:01:30.963Z,18.90
2018-06-09T01:03:43.297Z,18.92
2018-06-09T01:05:55.639Z,18.91
2018-06-09T01:08:08.008Z,18.87
2018-06-09T01:10:20.379Z,18.84
2018-06-09T01:12:32.762Z,18.78
2018-06-09T01:14:45.124Z,18.74
2018-06-09T01:16:57.485Z,18.68
2018-06-09T01:19:09.911Z,18.64
2018-06-09T01:21:22.283Z,18.69
2018-06-09T01:23:34.655Z,18.73
2018-06-09T01:25:47.095Z,18.69
2018-06-09T01:27:59.502Z,18.72
2018-06-09T01:30:11.874Z,18.73
2018-06-09T01:32:24.390Z,18.76
2018-06-09T01:34:36.755Z,18.80
2018-06-09T01:36:49.134Z,18.81
2018-06-09T01:39:01.539Z,18.82
2018-06-09T01:41:13.990Z,18.82
2018-06-09T01:43:26.341Z,18.79
2018-06-09T01:45:38.867Z,18.76
2018-06-09T01:47:51.322Z,18.73
2018-06-09T01:50:03.758Z,18.72
2018-06-09T01:52:16.230Z,18.72
2018-06-09T01:54:28.667Z,18.76
2018-06-09T01:56:41.098Z,18.77
2018-06-09T01:58:53.485Z,18.81
2018-06-09T02:01:05.804Z,18.84
2018-06-09T02:03:18.258Z,18.83
2018-06-09T02:05:30.704Z,18.85
2018-06-09T02:07:43.031Z,18.89
2018-06-09T02:09:55.374Z,18.89
2018-06-09T02:12:07.738Z,18.92
2018-06-09T02:14:20.119Z,18.93
2018-06-09T02:16:32.491Z,18.92
2018-06-09T02:18:44.924Z,18.92
2018-06-09T02:20:57.293Z,18.85
2018-06-09T02:23:09.669Z,18.81
2018-06-09T02:25:22.014Z,18.79
2018-06-09T02:27:34.383Z,18.82
2018-06-09T02:29:46.797Z,18.77
2018-06-09T02:31:59.170Z,18.73
2018-06-09T02:34:11.544Z,18.69
2018-06-09T02:36:24.097Z,18.63
2018-06-09T02:38:36.734Z,18.63
2018-06-09T02:40:49.111Z,18.63
2018-06-09T02:43:01.463Z,18.63
2018-06-09T02:45:13.863Z,18.65
2018-06-09T02:47:26.272Z,18.62
2018-06-09T02:49:38.606Z,18.65
2018-06-09T02:51:50.950Z,18.66
2018-06-09T02:54:03.357Z,18.66
2018-06-09T02:56:15.782Z,18.64
2018-06-09T02:58:28.146Z,18.64
2018-06-09T03:00:40.482Z,18.63
2018-06-09T03:02:52.880Z,18.59
2018-06-09T03:05:05.634Z,18.56
2018-06-09T03:07:18.195Z,18.51
2018-06-09T03:09:30.665Z,18.54
2018-06-09T03:11:43.047Z,18.54
2018-06-09T03:13:55.524Z,18.55
2018-06-09T03:16:07.946Z,18.52
2018-06-09T03:18:20.378Z,18.52
2018-06-09T03:20:32.809Z,18.55
2018-06-09T03:22:45.242Z,18.55
2018-06-09T03:24:57.534Z,18.59
2018-06-09T03:27:10.450Z,18.63
2018-06-09T03:29:22.802Z,18.65
2018-06-09T03:31:35.197Z,18.67
2018-06-09T03:33:47.546Z,18.73
2018-06-09T03:35:59.923Z,18.75
2018-06-09T03:38:12.279Z,18.76
2018-06-09T03:40:24.750Z,18.86
2018-06-09T03:42:37.114Z,18.87
2018-06-09T03:44:49.510Z,18.88
2018-06-09T03:47:01.976Z,18.87
2018-06-09T03:49:14.457Z,18.90
2018-06-09T03:51:26.778Z,18.95
2018-06-09T03:53:39.314Z,18.99
2018-06-09T03:55:51.770Z,19.00
2018-06-09T03:58:04.320Z,19.02
2018-06-09T04:00:16.687Z,19.06
2018-06-09T04:02:29.086Z,19.05
2018-06-09T04:04:41.482Z,19.08
2018-06-09T04:06:53.806Z,19.11
2018-06-09T04:09:07.681Z,19.12
2018-06-09T04:11:20.058Z,19.14
2018-06-09T04:13:32.458Z,19.18
2018-06-09T04:15:44.827Z,19.19
2018-06-09T04:17:57.149Z,19.22
2018-06-09T04:20:09.579Z,19.27
2018-06-09T04:22:21.909Z,19.32
2018-06-09T04:24:34.313Z,19.32
2018-06-09T04:26:46.703Z,19.33
2018-06-09T04:28:59.058Z,19.34
2018-06-09T04:31:11.382Z,19.40
2018-06-09T04:33:23.728Z,19.46
2018-06-09T04:35:36.146Z,19.50
2018-06-09T04:37:48.571Z,19.51
2018-06-09T04:40:00.954Z,19.54
2018-06-09T04:42:13.250Z,19.56
2018-06-09T04:44:25.684Z,19.57
2018-06-09T04:46:38.102Z,19.58
2018-06-09T04:48:50.734Z,19.60
2018-06-09T04:51:03.066Z,19.61
2018-06-09T04:53:15.528Z,19.63
2018-06-09T04:55:27.919Z,19.64
2018-06-09T04:57:40.355Z,19.66
2018-06-09T04:59:52.682Z,19.68
2018-06-09T05:02:05.288Z,19.71
2018-06-09T05:04:17.702Z,19.75
2018-06-09T05:06:30.122Z,19.83
2018-06-09T05:08:42.605Z,19.92
2018-06-09T05:10:55.014Z,19.96
2018-06-09T05:13:07.414Z,19.98
2018-06-09T05:15:19.782Z,20.04
2018-06-09T05:17:32.155Z,20.07
2018-06-09T05:19:44.782Z,20.13
2018-06-09T05:21:57.129Z,20.20
2018-06-09T05:24:09.706Z,20.23
2018-06-09T05:26:22.109Z,20.21
2018-06-09T05:28:34.466Z,20.21
2018-06-09T05:30:46.916Z,20.27
2018-06-09T05:32:59.253Z,20.24
2018-06-09T05:35:11.645Z,20.25
2018-06-09T05:37:24.109Z,20.28
2018-06-09T05:39:36.562Z,20.32
2018-06-09T05:41:49.018Z,20.39
2018-06-09T05:44:01.487Z,20.46
2018-06-09T05:46:13.816Z,20.49
2018-06-09T05:48:26.199Z,20.57
2018-06-09T05:50:38.886Z,20.64
2018-06-09T05:52:51.226Z,20.67
2018-06-09T05:55:03.843Z,20.76
2018-06-09T05:57:16.229Z,20.76
2018-06-09T05:59:28.620Z,20.83
2018-06-09T06:01:41.020Z,20.85
2018-06-09T06:03:54.275Z,20.92
2018-06-09T06:06:06.587Z,21.05
2018-06-09T06:08:19.034Z,21.20
2018-06-09T06:10:31.415Z,21.34
2018-06-09T06:12:43.826Z,21.44
2018-06-09T06:14:56.163Z,21.47
2018-06-09T06:17:08.538Z,21.49
2018-06-09T06:19:20.909Z,21.50
2018-06-09T06:21:33.391Z,21.52
2018-06-09T06:23:45.897Z,21.51
2018-06-09T06:25:58.233Z,21.55
2018-06-09T06:28:10.832Z,21.62
2018-06-09T06:30:23.158Z,21.76
2018-06-09T06:32:36.572Z,21.90
2018-06-09T06:34:48.900Z,21.94
2018-06-09T06:37:01.342Z,21.90
2018-06-09T06:39:13.841Z,21.93
2018-06-09T06:41:26.230Z,21.97
2018-06-09T06:43:38.605Z,22.04
2018-06-09T06:45:50.998Z,22.30
2018-06-09T06:48:03.425Z,22.56
2018-06-09T06:50:15.907Z,22.84
2018-06-09T06:52:28.226Z,22.93
2018-06-09T06:54:40.623Z,22.84
2018-06-09T06:56:53.089Z,22.69
2018-06-09T06:59:06.083Z,22.52
2018-06-09T07:01:18.403Z,22.38
2018-06-09T07:03:30.819Z,22.53
2018-06-09T07:05:43.247Z,22.65
2018-06-09T07:07:55.619Z,22.76
2018-06-09T07:10:07.979Z,22.82
2018-06-09T07:12:20.386Z,22.85
2018-06-09T07:14:32.809Z,22.87
2018-06-09T07:16:45.235Z,22.86
2018-06-09T07:18:57.647Z,22.82
2018-06-09T07:21:09.995Z,22.83
2018-06-09T07:23:22.362Z,23.04
2018-06-09T07:25:34.701Z,23.32
2018-06-09T07:27:47.047Z,23.68
2018-06-09T07:29:59.479Z,24.02
2018-06-09T07:32:11.973Z,24.17
2018-06-09T07:34:24.452Z,24.22
2018-06-09T07:36:36.856Z,24.09
2018-06-09T07:38:50.123Z,23.93
2018-06-09T07:41:02.455Z,23.78
2018-06-09T07:43:14.859Z,23.68
2018-06-09T07:45:27.382Z,23.56
2018-06-09T07:47:39.832Z,23.50
2018-06-09T07:49:52.257Z,23.40
2018-06-09T07:52:04.795Z,23.37
2018-06-09T07:54:17.212Z,23.35
2018-06-09T07:56:29.621Z,23.20
2018-06-09T07:58:41.978Z,23.03
2018-06-09T08:00:54.423Z,23.04
2018-06-09T08:03:06.789Z,23.03
2018-06-09T08:05:19.188Z,23.07
2018-06-09T08:07:31.731Z,23.11
2018-06-09T08:09:44.147Z,23.15
2018-06-09T08:11:56.636Z,23.24
2018-06-09T08:14:09.109Z,23.28
2018-06-09T08:16:21.502Z,23.27
2018-06-09T08:18:33.927Z,23.27
2018-06-09T08:20:46.285Z,23.33
2018-06-09T08:22:58.611Z,23.56
2018-06-09T08:25:11.032Z,24.05
2018-06-09T08:27:23.507Z,24.63
2018-06-09T08:29:35.901Z,25.10
2018-06-09T08:31:48.388Z,25.56
2018-06-09T08:34:00.810Z,25.91
2018-06-09T08:36:13.262Z,26.20
2018-06-09T08:38:25.662Z,26.26
2018-06-09T08:40:38.054Z,26.09
2018-06-09T08:42:50.415Z,25.92
2018-06-09T08:45:02.870Z,25.75
2018-06-09T08:47:15.324Z,25.79
2018-06-09T08:49:27.650Z,26.02
2018-06-09T08:51:40.082Z,25.99
2018-06-09T08:53:52.463Z,25.67
2018-06-09T08:56:04.940Z,25.45
2018-06-09T08:58:17.542Z,25.39
2018-06-09T09:00:29.913Z,25.47
2018-06-09T09:02:42.355Z,25.73
2018-06-09T09:04:54.755Z,25.97
2018-06-09T09:07:07.188Z,26.31
2018-06-09T09:09:19.664Z,26.54
2018-06-09T09:11:32.022Z,26.75
2018-06-09T09:13:45.073Z,26.88
2018-06-09T09:16:04.194Z,26.97
2018-06-09T09:18:16.579Z,27.12
2018-06-09T09:20:29.059Z,27.07
2018-06-09T09:22:41.483Z,26.85
2018-06-09T09:24:53.882Z,26.69
2018-06-09T09:27:06.375Z,26.90
2018-06-09T09:29:18.872Z,27.10
2018-06-09T09:31:31.292Z,27.33
2018-06-09T09:33:43.714Z,27.32
2018-06-09T09:35:56.166Z,27.25
2018-06-09T09:38:08.613Z,26.92
2018-06-09T09:40:21.010Z,26.70
2018-06-09T09:42:33.434Z,26.47
2018-06-09T09:44:45.901Z,26.32
2018-06-09T09:46:58.292Z,26.21
2018-06-09T09:49:10.692Z,26.02
2018-06-09T09:51:23.043Z,26.16
2018-06-09T09:53:36.601Z,26.28
2018-06-09T09:55:49.008Z,26.32
2018-06-09T09:58:02.334Z,26.65
2018-06-09T10:00:19.246Z,26.87
2018-06-09T10:02:31.604Z,26.92
2018-06-09T10:04:44.093Z,26.95
2018-06-09T10:06:56.479Z,27.01
2018-06-09T10:09:08.906Z,27.26
2018-06-09T10:11:21.327Z,27.51
2018-06-09T10:13:33.842Z,27.71
2018-06-09T10:15:46.313Z,27.75
2018-06-09T10:17:58.726Z,27.84
2018-06-09T10:20:11.224Z,27.93
2018-06-09T10:22:23.675Z,27.85
2018-06-09T10:24:36.065Z,27.73
2018-06-09T10:26:48.521Z,27.59
2018-06-09T10:29:00.922Z,27.40
2018-06-09T10:31:13.275Z,27.48
2018-06-09T10:33:27.526Z,27.42
2018-06-09T10:35:39.869Z,27.50
2018-06-09T10:37:52.253Z,27.69
2018-06-09T10:40:04.645Z,27.91
2018-06-09T10:42:17.109Z,28.07
2018-06-09T10:44:29.454Z,28.10
2018-06-09T10:46:41.918Z,27.96
2018-06-09T10:48:54.374Z,27.98
2018-06-09T10:51:06.746Z,28.19
2018-06-09T10:53:19.182Z,28.39
2018-06-09T10:55:31.542Z,28.54
2018-06-09T10:57:44.051Z,28.60
2018-06-09T10:59:56.430Z,28.74
2018-06-09T11:02:08.783Z,28.92
2018-06-09T11:04:21.172Z,28.91
2018-06-09T11:06:33.476Z,28.69
2018-06-09T11:08:45.813Z,28.49
2018-06-09T11:10:58.226Z,28.39
2018-06-09T11:13:10.779Z,28.22
2018-06-09T11:15:24.111Z,28.23
2018-06-09T11:17:36.550Z,28.36
2018-06-09T11:19:48.968Z,28.54
2018-06-09T11:22:01.361Z,28.83
2018-06-09T11:24:13.768Z,29.01
2018-06-09T11:26:26.310Z,28.90
2018-06-09T11:28:38.689Z,28.73
2018-06-09T11:30:51.126Z,28.44
2018-06-09T11:33:03.553Z,28.37
2018-06-09T11:35:16.042Z,28.49
2018-06-09T11:37:28.510Z,28.58
2018-06-09T11:39:40.948Z,28.28
2018-06-09T11:41:53.257Z,28.27
2018-06-09T11:44:05.892Z,28.39
2018-06-09T11:46:18.392Z,28.67
2018-06-09T11:48:30.734Z,28.87
2018-06-09T11:50:43.115Z,28.99
2018-06-09T11:52:55.454Z,29.01
2018-06-09T11:55:07.876Z,29.02
2018-06-09T11:57:20.318Z,28.88
2018-06-09T11:59:32.842Z,28.56
2018-06-09T12:01:45.345Z,28.56
2018-06-09T12:03:57.643Z,28.63
2018-06-09T12:06:10.059Z,28.67
2018-06-09T12:08:22.427Z,28.78
2018-06-09T12:10:34.850Z,28.92
2018-06-09T12:12:47.281Z,28.96
2018-06-09T12:14:59.714Z,28.98
2018-06-09T12:17:12.192Z,28.95
2018-06-09T12:19:24.580Z,29.06
2018-06-09T12:21:38.366Z,29.15
2018-06-09T12:23:50.715Z,29.02
2018-06-09T12:26:03.302Z,28.92
2018-06-09T12:28:15.686Z,28.95
2018-06-09T12:30:28.017Z,29.03
2018-06-09T12:32:40.379Z,29.03
2018-06-09T12:34:53.045Z,29.16
2018-06-09T12:37:05.499Z,29.24
2018-06-09T12:39:17.862Z,29.27
2018-06-09T12:41:30.254Z,29.23
2018-06-09T12:43:42.619Z,29.17
2018-06-09T12:45:55.027Z,29.21
2018-06-09T12:48:07.414Z,29.22
2018-06-09T12:50:19.802Z,29.22
2018-06-09T12:52:32.462Z,29.32
2018-06-09T12:54:44.895Z,29.45
2018-06-09T12:56:57.295Z,29.55
2018-06-09T12:59:09.697Z,29.53
2018-06-09T13:01:22.070Z,29.40
2018-06-09T13:03:34.657Z,29.42
2018-06-09T13:05:47.062Z,29.44
2018-06-09T13:07:59.434Z,29.42
2018-06-09T13:10:11.805Z,29.40
2018-06-09T13:12:24.268Z,29.45
2018-06-09T13:14:36.669Z,29.58
2018-06-09T13:16:49.098Z,29.65
2018-06-09T13:19:01.471Z,29.68
2018-06-09T13:21:13.815Z,29.64
2018-06-09T13:23:26.278Z,29.59
2018-06-09T13:25:38.654Z,29.57
2018-06-09T13:27:51.056Z,29.45
2018-06-09T13:30:03.618Z,29.33
2018-06-09T13:32:15.982Z,29.30
2018-06-09T13:34:28.761Z,29.28
2018-06-09T13:36:41.157Z,29.15
2018-06-09T13:38:53.601Z,28.98
2018-06-09T13:41:06.076Z,29.01
2018-06-09T13:43:18.486Z,29.01
2018-06-09T13:45:30.921Z,28.99
2018-06-09T13:47:43.326Z,28.89
2018-06-09T13:49:55.811Z,28.86
2018-06-09T13:52:08.208Z,28.80
2018-06-09T13:54:20.647Z,28.85
2018-06-09T13:56:33.030Z,28.96
2018-06-09T13:58:45.409Z,28.90
2018-06-09T14:00:57.811Z,28.95
2018-06-09T14:03:10.182Z,28.96
2018-06-09T14:05:23.075Z,28.90
2018-06-09T14:07:35.740Z,28.82
2018-06-09T14:09:48.209Z,28.72
2018-06-09T14:12:00.669Z,28.73
2018-06-09T14:14:13.082Z,28.65
2018-06-09T14:16:25.686Z,28.62
2018-06-09T14:18:38.021Z,28.50
2018-06-09T14:20:50.407Z,28.46
2018-06-09T14:23:02.822Z,28.35
2018-06-09T14:25:15.146Z,28.34
2018-06-09T14:27:27.642Z,28.25
2018-06-09T14:29:40.038Z,28.17
2018-06-09T14:31:52.444Z,28.14
2018-06-09T14:34:05.011Z,28.09
2018-06-09T14:36:17.412Z,28.02
2018-06-09T14:38:29.782Z,28.02
2018-06-09T14:40:42.243Z,27.96
2018-06-09T14:42:54.649Z,27.98
2018-06-09T14:45:07.030Z,27.90
2018-06-09T14:47:19.527Z,27.86
2018-06-09T14:49:31.963Z,27.81
2018-06-09T14:51:44.392Z,27.85
2018-06-09T14:53:56.831Z,27.86
2018-06-09T14:56:09.247Z,27.84
2018-06-09T14:58:21.740Z,27.78
2018-06-09T15:00:34.115Z,27.71
2018-06-09T15:02:46.522Z,27.68
2018-06-09T15:04:59.113Z,27.58
2018-06-09T15:07:11.562Z,27.58
2018-06-09T15:09:23.932Z,27.43
2018-06-09T15:11:36.408Z,27.29
2018-06-09T15:13:48.764Z,27.23
2018-06-09T15:16:01.238Z,27.06
2018-06-09T15:18:13.634Z,26.99
2018-06-09T15:20:26.073Z,26.92
2018-06-09T15:22:38.441Z,26.72
2018-06-09T15:24:50.824Z,26.62
2018-06-09T15:27:03.256Z,26.54
2018-06-09T15:29:15.799Z,26.44
2018-06-09T15:31:28.211Z,26.33
2018-06-09T15:33:40.620Z,26.24
2018-06-09T15:35:53.053Z,26.17
2018-06-09T15:38:05.498Z,26.13
2018-06-09T15:40:17.906Z,26.12
2018-06-09T15:42:30.395Z,26.10
2018-06-09T15:44:42.787Z,26.00
2018-06-09T15:46:55.365Z,26.02
2018-06-09T15:49:07.729Z,26.06
2018-06-09T15:51:20.118Z,26.06
2018-06-09T15:53:32.553Z,26.06
2018-06-09T15:55:44.883Z,26.11
2018-06-09T15:57:57.279Z,26.11
2018-06-09T16:00:09.791Z,26.14
2018-06-09T16:02:22.186Z,26.24
2018-06-09T16:04:34.627Z,26.26
2018-06-09T16:06:47.079Z,26.28
2018-06-09T16:08:59.549Z,26.30
2018-06-09T16:11:11.961Z,26.25
2018-06-09T16:13:24.368Z,26.18
2018-06-09T16:15:37.049Z,26.23
2018-06-09T16:17:49.512Z,26.27
2018-06-09T16:20:01.895Z,26.18
2018-06-09T16:22:14.339Z,26.17
2018-06-09T16:24:26.802Z,26.26
2018-06-09T16:26:39.190Z,26.29
2018-06-09T16:28:51.570Z,26.27
2018-06-09T16:31:04.008Z,26.32
2018-06-09T16:33:16.434Z,26.39
2018-06-09T16:35:28.826Z,26.41
2018-06-09T16:37:41.754Z,26.42
2018-06-09T16:39:54.105Z,26.42
2018-06-09T16:42:06.589Z,26.38
2018-06-09T16:44:18.980Z,26.36
2018-06-09T16:46:31.362Z,26.40
2018-06-09T16:48:43.890Z,26.32
2018-06-09T16:50:56.284Z,26.31
2018-06-09T16:53:08.647Z,26.23
2018-06-09T16:55:21.212Z,26.14
2018-06-09T16:57:33.615Z,26.08
2018-06-09T16:59:46.070Z,26.01
2018-06-09T17:01:58.468Z,25.99
2018-06-09T17:04:10.887Z,25.89
2018-06-09T17:06:23.505Z,25.90
2018-06-09T17:08:35.815Z,25.93
2018-06-09T17:10:48.300Z,25.86
2018-06-09T17:13:00.690Z,25.77
2018-06-09T17:15:13.100Z,25.75
2018-06-09T17:17:25.490Z,25.74
2018-06-09T17:19:37.978Z,25.76
2018-06-09T17:21:50.410Z,25.68
2018-06-09T17:24:02.756Z,25.59
2018-06-09T17:26:15.275Z,25.55
2018-06-09T17:28:27.671Z,25.50
2018-06-09T17:30:40.259Z,25.46
2018-06-09T17:32:52.676Z,25.39
2018-06-09T17:35:05.122Z,25.34
2018-06-09T17:37:17.547Z,25.30
2018-06-09T17:39:30.023Z,25.25
2018-06-09T17:41:42.391Z,25.16
2018-06-09T17:43:55.090Z,25.06
2018-06-09T17:46:07.477Z,24.96
2018-06-09T17:48:19.855Z,24.85
2018-06-09T17:50:32.334Z,24.84
2018-06-09T17:52:44.841Z,24.86
2018-06-09T17:54:57.277Z,24.82
2018-06-09T17:57:09.815Z,24.67
2018-06-09T17:59:22.224Z,24.69
2018-06-09T18:01:34.697Z,24.53
2018-06-09T18:03:47.239Z,24.42
2018-06-09T18:05:59.806Z,24.37
2018-06-09T18:08:12.175Z,24.31
2018-06-09T18:10:24.615Z,24.24
2018-06-09T18:12:37.007Z,24.27
2018-06-09T18:14:49.489Z,24.32
2018-06-09T18:17:01.935Z,24.34
2018-06-09T18:19:14.377Z,24.37
2018-06-09T18:21:26.880Z,24.31
2018-06-09T18:23:39.309Z,24.30
2018-06-09T18:25:51.918Z,24.25
2018-06-09T18:28:04.465Z,24.24
2018-06-09T18:30:16.868Z,24.30
2018-06-09T18:32:29.341Z,24.28
2018-06-09T18:34:42.343Z,24.06
2018-06-09T18:36:54.819Z,23.78
2018-06-09T18:39:08.833Z,23.67
2018-06-09T18:41:21.225Z,23.57
2018-06-09T18:43:33.703Z,23.53
2018-06-09T18:45:46.047Z,23.55
2018-06-09T18:47:58.465Z,23.48
2018-06-09T18:50:10.963Z,23.49
2018-06-09T18:52:23.393Z,23.50
2018-06-09T18:54:35.804Z,23.51
2018-06-09T18:56:48.199Z,23.52
2018-06-09T18:59:00.594Z,23.43
2018-06-09T19:01:13.015Z,23.26
2018-06-09T19:03:25.535Z,23.20
2018-06-09T19:05:37.893Z,23.19
2018-06-09T19:07:50.295Z,23.32
2018-06-09T19:10:02.758Z,23.38
2018-06-09T19:12:15.170Z,23.40
2018-06-09T19:14:27.631Z,23.45
2018-06-09T19:16:40.094Z,23.43
2018-06-09T19:18:52.414Z,23.42
2018-06-09T19:21:05.028Z,23.32
2018-06-09T19:23:17.458Z,23.14
2018-06-09T19:25:30.049Z,23.04
2018-06-09T19:27:42.504Z,23.01
2018-06-09T19:29:54.859Z,23.01
2018-06-09T19:32:07.257Z,23.01
2018-06-09T19:34:19.638Z,22.98
2018-06-09T19:36:32.018Z,23.01
2018-06-09T19:38:44.472Z,23.09
2018-06-09T19:40:56.835Z,23.14
2018-06-09T19:43:09.230Z,23.11
2018-06-09T19:45:21.783Z,23.07
2018-06-09T19:47:34.084Z,23.05
2018-06-09T19:49:46.508Z,23.02
2018-06-09T19:51:58.975Z,23.03
2018-06-09T19:54:11.326Z,23.09
2018-06-09T19:56:23.988Z,23.13
2018-06-09T19:58:36.426Z,23.09
2018-06-09T20:00:48.813Z,23.08
2018-06-09T20:03:01.247Z,23.02
2018-06-09T20:05:13.635Z,23.05
2018-06-09T20:07:26.158Z,23.06
2018-06-09T20:09:38.578Z,23.11
2018-06-09T20:11:50.938Z,23.15
2018-06-09T20:14:03.450Z,23.12
2018-06-09T20:16:15.860Z,22.95
2018-06-09T20:18:28.233Z,22.73
2018-06-09T20:20:40.695Z,22.50
2018-06-09T20:22:53.078Z,22.27
2018-06-09T20:25:05.470Z,22.15
2018-06-09T20:27:17.994Z,22.04
2018-06-09T20:29:30.548Z,21.92
2018-06-09T20:31:43.418Z,21.84
2018-06-09T20:33:55.897Z,21.73
2018-06-09T20:36:08.437Z,21.60
2018-06-09T20:38:20.875Z,21.57
2018-06-09T20:40:33.375Z,21.49
2018-06-09T20:42:45.811Z,21.44
2018-06-09T20:44:58.237Z,21.36
2018-06-09T20:47:10.713Z,21.29
2018-06-09T20:49:23.098Z,21.24
2018-06-09T20:51:35.583Z,21.19
2018-06-09T20:53:47.981Z,21.16
2018-06-09T20:56:00.423Z,21.05
2018-06-09T20:58:12.866Z,20.94
2018-06-09T21:00:25.227Z,20.86
2018-06-09T21:02:37.667Z,20.82
2018-06-09T21:04:50.031Z,20.78
2018-06-09T21:07:02.406Z,20.76
2018-06-09T21:09:14.781Z,20.66
2018-06-09T21:11:27.189Z,20.57
2018-06-09T21:13:39.563Z,20.55
2018-06-09T21:15:52.089Z,20.49
2018-06-09T21:18:04.493Z,20.51
2018-06-09T21:20:16.839Z,20.54
2018-06-09T21:22:29.317Z,20.57
2018-06-09T21:24:41.734Z,20.51
2018-06-09T21:26:59.791Z,20.47
2018-06-09T21:29:16.663Z,20.43
2018-06-09T21:31:32.912Z,20.35
2018-06-09T21:34:02.240Z,20.31
2018-06-09T21:36:19.174Z,20.26
2018-06-09T21:38:33.699Z,20.23
2018-06-09T21:40:49.058Z,20.25
2018-06-09T21:43:07.313Z,20.24
2018-06-09T21:45:52.751Z,20.31
2018-06-09T21:48:05.223Z,20.34
2018-06-09T21:50:17.734Z,20.30
2018-06-09T21:52:30.109Z,20.31
2018-06-09T21:54:42.550Z,20.33
2018-06-09T21:56:54.977Z,20.34
2018-06-09T21:59:07.373Z,20.40
2018-06-09T22:01:19.982Z,20.44
2018-06-09T22:03:32.350Z,20.37
2018-06-09T22:05:44.754Z,20.25
2018-06-09T22:07:57.159Z,20.18
2018-06-09T22:10:09.556Z,20.21
2018-06-09T22:12:22.069Z,20.21
2018-06-09T22:14:34.543Z,20.15
2018-06-09T22:16:46.938Z,20.09
2018-06-09T22:18:59.350Z,20.06
2018-06-09T22:21:11.887Z,20.08
2018-06-09T22:23:24.522Z,20.02
2018-06-09T22:25:42.674Z,19.96
2018-06-09T22:27:55.058Z,19.92
2018-06-09T22:30:08.053Z,19.81
2018-06-09T22:32:20.527Z,19.76
2018-06-09T22:34:33.966Z,19.74
2018-06-09T22:36:46.607Z,19.70
2018-06-09T22:38:59.040Z,19.70
2018-06-09T22:41:11.457Z,19.69
2018-06-09T22:43:23.883Z,19.68
2018-06-09T22:45:36.287Z,19.68
2018-06-09T22:47:48.714Z,19.72
2018-06-09T22:50:01.145Z,19.78
2018-06-09T22:52:13.510Z,19.86
2018-06-09T22:54:26.357Z,19.93
2018-06-09T22:56:38.756Z,19.97
2018-06-09T22:58:51.204Z,19.99
2018-06-09T23:01:03.658Z,19.97
2018-06-09T23:03:16.579Z,19.94
2018-06-09T23:05:28.913Z,19.95
2018-06-09T23:07:41.427Z,19.93
2018-06-09T23:09:53.827Z,19.96
2018-06-09T23:12:06.490Z,19.94
2018-06-09T23:14:18.879Z,19.95
2018-06-09T23:16:31.267Z,19.96
2018-06-09T23:18:43.674Z,19.99
2018-06-09T23:20:56.062Z,20.00
2018-06-09T23:23:08.916Z,19.96
2018-06-09T23:25:21.302Z,19.94
2018-06-09T23:27:33.698Z,19.93
2018-06-09T23:29:46.082Z,19.96
2018-06-09T23:31:58.626Z,19.97
2018-06-09T23:34:11.722Z,19.95
2018-06-09T23:36:24.214Z,19.88
2018-06-09T23:38:36.614Z,19.87
2018-06-09T23:40:49.022Z,19.90
2018-06-09T23:43:01.359Z,19.92
2018-06-09T23:45:13.814Z,19.88
2018-06-09T23:47:26.154Z,19.82
2018-06-09T23:49:38.515Z,19.78
2018-06-09T23:51:50.862Z,19.72
2018-06-09T23:54:03.325Z,19.69
2018-06-09T23:56:15.782Z,19.65
2018-06-09T23:58:28.136Z,19.62
